Time;durP1;ratioP1;P1;durP2;ratioP2;P2;SDS_P1;SDS_P2;PMS_P1;PMS_P2;Temp;Humidity;BMP_temperature;BMP_pressure;BME280_temperature;BME280_humidity;BME280_pressure;Samples;Min_cycle;Max_cycle;Signal;HPM_P1;HPM_P2
2022/11/03 00:01:45;;;;;;;;;;;;;;;;;;10503172;28;20327;-68
2022/11/03 00:06:48;;;;;;;;;;;;;;;;;;10502244;28;20435;-68
2022/11/03 00:11:50;;;;;;;;;;;;;;;;;;10502846;28;19970;-68
2022/11/03 00:16:52;;;;;;;;;;;;;;;;;;10502591;28;19974;-68
2022/11/03 00:21:57;;;;;;;;;;;;;;;;;;10502449;28;19949;-68
2022/11/03 00:26:59;;;;;;;;;;;;;;;;;;10501622;28;20283;-69
2022/11/03 00:32:01;;;;;;;;;;;;;;;;;;10502046;28;19932;-69
2022/11/03 00:37:03;;;;;;;;;;;;;;;;;;10501135;28;19928;-69
2022/11/03 00:42:05;;;;;;;;;;;;;;;;;;10501425;28;19954;-69
2022/11/03 00:47:07;;;;;;;;;;;;;;;;;;10501640;28;19924;-69
2022/11/03 00:52:09;;;;;;;;;;;;;;;;;;10501240;28;19924;-68
2022/11/03 00:57:11;;;;;;;;;;;;;;;;;;10500910;28;19928;-69
2022/11/03 01:02:13;;;;;;;;;;;;;;;;;;10500827;28;19978;-69
2022/11/03 01:07:15;;;;;;;;;;;;;;;;;;10499799;28;19975;-68
2022/11/03 01:12:17;;;;;;;;;;;;;;;;;;10500370;28;19924;-69
2022/11/03 01:17:19;;;;;;;;;;;;;;;;;;10499504;28;19924;-68
2022/11/03 01:22:21;;;;;;;;;;;;;;;;;;10500002;28;19928;-67
2022/11/03 01:27:24;;;;;;;;;;;;;;;;;;10499835;28;19970;-69
2022/11/03 01:32:26;;;;;;;;;;;;;;;;;;10499718;28;19978;-69
2022/11/03 01:37:28;;;;;;;;;;;;;;;;;;10499451;28;19977;-68
2022/11/03 01:42:30;;;;;;;;;;;;;;;;;;10499407;28;19974;-68
2022/11/03 01:47:32;;;;;;;;;;;;;;;;;;10498658;28;20264;-68
2022/11/03 01:52:35;;;;;;;;;;;;;;;;;;10498527;28;19978;-69
2022/11/03 01:57:38;;;;;;;;;;;;;;;;;;10499045;28;19924;-69
2022/11/03 02:02:40;;;;;;;;;;;;;;;;;;10498372;28;19970;-69
2022/11/03 02:07:42;;;;;;;;;;;;;;;;;;10498087;28;19924;-68
2022/11/03 02:12:44;;;;;;;;;;;;;;;;;;10498088;28;20375;-69
2022/11/03 02:17:46;;;;;;;;;;;;;;;;;;10498553;28;19951;-68
2022/11/03 02:22:48;;;;;;;;;;;;;;;;;;10498553;28;19959;-68
2022/11/03 02:27:50;;;;;;;;;;;;;;;;;;10498613;28;19925;-68
2022/11/03 02:32:53;;;;;;;;;;;;;;;;;;10497749;28;19970;-69
2022/11/03 02:37:55;;;;;;;;;;;;;;;;;;10497592;28;19924;-68
2022/11/03 02:42:57;;;;;;;;;;;;;;;;;;10497530;28;19925;-68
2022/11/03 02:47:59;;;;;;;;;;;;;;;;;;10498669;28;19978;-68
2022/11/03 02:53:01;;;;;;;;;;;;;;;;;;10497363;28;19928;-68
2022/11/03 02:58:03;;;;;;;;;;;;;;;;;;10497142;28;19924;-68
2022/11/03 03:03:05;;;;;;;;;;;;;;;;;;10497565;28;19974;-68
2022/11/03 03:08:07;;;;;;;;;;;;;;;;;;10505525;28;19955;-68
2022/11/03 03:13:09;;;;;;;;;;;;;;;;;;10504555;28;19946;-68
2022/11/03 03:18:11;;;;;;;;;;;;;;;;;;10504271;28;20341;-68
2022/11/03 03:23:13;;;;;;;;;;;;;;;;;;10504127;28;19973;-68
2022/11/03 03:28:16;;;;;;;;;;;;;;;;;;10504584;28;19977;-69
2022/11/03 03:33:18;;;;;;;;;;;;;;;;;;10503784;28;20383;-69
2022/11/03 03:38:20;;;;;;;;;;;;;;;;;;10504187;28;19924;-69
2022/11/03 03:43:22;;;;;;;;;;;;;;;;;;10503413;28;19928;-68
2022/11/03 03:48:24;;;;;;;;;;;;;;;;;;10503888;28;19925;-68
2022/11/03 03:53:26;;;;;;;;;;;;;;;;;;10503642;28;19974;-68
2022/11/03 03:58:28;;;;;;;;;;;;;;;;;;10502718;28;20425;-68
2022/11/03 04:03:30;;;;;;;;;;;;;;;;;;10503256;28;19924;-68
2022/11/03 04:08:32;;;;;;;;;;;;;;;;;;10502478;28;20053;-68
2022/11/03 04:24:16;;;;;;;;;;;;;;;;;;10502518;28;19929;-68
2022/11/03 04:29:18;;;;;;;;;;;;;;;;;;10502256;28;19925;-68
2022/11/03 04:34:22;;;;;;;;;;;;;;;;;;10501563;28;19947;-68
2022/11/03 04:39:24;;;;;;;;;;;;;;;;;;10501760;28;19928;-68
2022/11/03 04:44:26;;;;;;;;;;;;;;;;;;10500931;28;20375;-68
2022/11/03 04:49:28;;;;;;;;;;;;;;;;;;10501385;28;19924;-68
2022/11/03 04:54:30;;;;;;;;;;;;;;;;;;10500551;28;19924;-68
2022/11/03 04:59:32;;;;;;;;;;;;;;;;;;10500228;28;20334;-68
2022/11/03 05:04:34;;;;;;;;;;;;;;;;;;10500407;28;19924;-68
2022/11/03 05:09:36;;;;;;;;;;;;;;;;;;10500566;28;19924;-68
2022/11/03 05:14:43;;;;;;;;;;;;;;;;;;10500377;28;19932;-68
2022/11/03 05:19:45;;;;;;;;;;;;;;;;;;10499456;28;19925;-68
2022/11/03 05:24:47;;;;;;;;;;;;;;;;;;10499973;28;19925;-69
2022/11/03 05:29:49;;;;;;;;;;;;;;;;;;10498377;28;20322;-68
2022/11/03 05:34:53;;;;;;;;;;;;;;;;;;10500310;28;19936;-68
2022/11/03 05:39:55;;;;;;;;;;;;;;;;;;10498836;28;20325;-68
2022/11/03 05:44:57;;;;;;;;;;;;;;;;;;10499639;28;19970;-68
2022/11/03 05:49:59;;;;;;;;;;;;;;;;;;10499313;28;19971;-69
2022/11/03 05:55:01;;;;;;;;;;;;;;;;;;10499155;28;19970;-69
2022/11/03 06:00:03;;;;;;;;;;;;;;;;;;10498292;28;20378;-69
2022/11/03 06:05:05;;;;;;;;;;;;;;;;;;10498551;28;19925;-69
2022/11/03 06:10:07;;;;;;;;;;;;;;;;;;10499075;28;19924;-68
2022/11/03 06:15:09;;;;;;;;;;;;;;;;;;10498834;28;19978;-68
2022/11/03 06:20:11;;;;;;;;;;;;;;;;;;10498518;28;19928;-68
2022/11/03 06:25:13;;;;;;;;;;;;;;;;;;10498530;28;19970;-68
2022/11/03 06:30:15;;;;;;;;;;;;;;;;;;10497816;28;19924;-68
2022/11/03 06:35:17;;;;;;;;;;;;;;;;;;10498360;28;19925;-69
2022/11/03 06:40:20;;;;;;;;;;;;;;;;;;10501976;28;19928;-68
2022/11/03 06:45:22;;;;;;;;;;;;;;;;;;10506107;28;20369;-69
2022/11/03 06:50:24;;;;;;;;;;;;;;;;;;10505421;28;19989;-69
2022/11/03 06:55:26;;;;;;;;;;;;;;;;;;10505971;28;19932;-69
2022/11/03 07:00:28;;;;;;;;;;;;;;;;;;10505737;28;19924;-68
2022/11/03 07:05:35;;;;;;;;;;;;;;;;;;10504680;28;19994;-68
2022/11/03 07:10:38;;;;;;;;;;;;;;;;;;10505285;28;19982;-69
2022/11/03 07:15:40;;;;;;;;;;;;;;;;;;10504901;28;19929;-69
2022/11/03 07:20:42;;;;;;;;;;;;;;;;;;10588402;22;20448;-70
2022/11/03 07:25:44;;;;;;;;;;;;;;;;;;10589000;28;19928;-70
2022/11/03 07:30:46;;;;;;;;;;;;;;;;;;10588820;28;19969;-70
2022/11/03 07:35:48;;;;;;;;;;;;;;;;;;10588544;28;19927;-69
2022/11/03 07:41:10;;;;;;;;;;;;;;;;;;10587586;28;19924;-69
2022/11/03 07:46:14;;;;;;;;;;;;;;;;;;10588159;28;19924;-70
2022/11/03 07:51:16;;;;;;;;;;;;;;;;;;10586899;28;19927;-69
2022/11/03 07:56:18;;;;;;;;;;;;;;;;;;10588683;28;19923;-69
2022/11/03 08:01:20;;;;;;;;;;;;;;;;;;10586967;28;19927;-70
2022/11/03 08:06:22;;;;;;;;;;;;;;;;;;10586711;28;19946;-70
2022/11/03 08:11:24;;;;;;;;;;;;;;;;;;10586510;28;20378;-69
2022/11/03 08:16:29;;;;;;;;;;;;;;;;;;10586781;28;19973;-70
2022/11/03 08:21:32;;;;;;;;;;;;;;;;;;10586148;28;20439;-69
2022/11/03 08:26:34;;;;;;;;;;;;;;;;;;10586523;28;19973;-70
2022/11/03 08:31:36;;;;;;;;;;;;;;;;;;10585758;28;19985;-70
2022/11/03 08:36:38;;;;;;;;;;;;;;;;;;10585950;28;19997;-70
2022/11/03 08:41:40;;;;;;;;;;;;;;;;;;10585931;28;19924;-70
2022/11/03 08:46:42;;;;;;;;;;;;;;;;;;10584002;28;19932;-70
2022/11/03 08:51:44;;;;;;;;;;;;;;;;;;10584314;28;19935;-69
2022/11/03 08:56:47;;;;;;;;;;;;;;;;;;10583831;28;19946;-69
2022/11/03 09:01:49;;;;;;;;;;;;;;;;;;10583986;28;19924;-69
2022/11/03 09:06:52;;;;;;;;;;;;;;;;;;10583405;28;19931;-70
2022/11/03 09:11:54;;;;;;;;;;;;;;;;;;10583281;28;20374;-70
2022/11/03 09:16:56;;;;;;;;;;;;;;;;;;10582710;28;19924;-70
2022/11/03 09:21:59;;;;;;;;;;;;;;;;;;10582828;28;20366;-69
2022/11/03 09:27:01;;;;;;;;;;;;;;;;;;10582658;28;20354;-70
2022/11/03 09:32:03;;;;;;;;;;;;;;;;;;10581943;28;19927;-70
2022/11/03 09:37:06;;;;;;;;;;;;;;;;;;10583637;28;19924;-70
2022/11/03 09:42:08;;;;;;;;;;;;;;;;;;10582831;28;20374;-69
2022/11/03 09:47:10;;;;;;;;;;;;;;;;;;10583378;28;19924;-69
2022/11/03 09:52:12;;;;;;;;;;;;;;;;;;10582624;28;20478;-70
2022/11/03 09:57:14;;;;;;;;;;;;;;;;;;10581841;28;20303;-69
2022/11/03 10:02:16;;;;;;;;;;;;;;;;;;10582057;28;19950;-70
2022/11/03 10:07:18;;;;;;;;;;;;;;;;;;10582870;28;19930;-69
2022/11/03 10:12:20;;;;;;;;;;;;;;;;;;10582633;28;19977;-68
2022/11/03 10:17:22;;;;;;;;;;;;;;;;;;10581782;28;19928;-67
2022/11/03 10:22:24;;;;;;;;;;;;;;;;;;10582747;28;19973;-68
2022/11/03 10:27:26;;;;;;;;;;;;;;;;;;10582422;28;19945;-67
2022/11/03 10:32:28;;;;;;;;;;;;;;;;;;10581677;28;19924;-68
2022/11/03 10:37:31;;;;;;;;;;;;;;;;;;10581582;28;19989;-67
2022/11/03 10:42:33;;;;;;;;;;;;;;;;;;10581446;28;20416;-67
2022/11/03 10:47:36;;;;;;;;;;;;;;;;;;10582084;28;19924;-67
2022/11/03 10:52:38;;;;;;;;;;;;;;;;;;10581989;28;19924;-66
2022/11/03 10:57:41;;;;;;;;;;;;;;;;;;10581180;28;19924;-68
2022/11/03 11:02:43;;;;;;;;;;;;;;;;;;10581913;28;19924;-67
2022/11/03 11:07:45;;;;;;;;;;;;;;;;;;10582249;28;19932;-66
2022/11/03 11:12:47;;;;;;;;;;;;;;;;;;10580943;28;19931;-67
2022/11/03 11:17:49;;;;;;;;;;;;;;;;;;10581065;28;19927;-67
2022/11/03 11:22:51;;;;;;;;;;;;;;;;;;10581354;28;19950;-67
2022/11/03 11:27:54;;;;;;;;;;;;;;;;;;10585617;28;19973;-68
2022/11/03 11:32:58;;;;;;;;;;;;;;;;;;10588750;28;19924;-68
2022/11/03 11:38:00;;;;;;;;;;;;;;;;;;10588443;28;19928;-68
2022/11/03 11:43:03;;;;;;;;;;;;;;;;;;10588369;28;19969;-69
2022/11/03 11:48:05;;;;;;;;;;;;;;;;;;10588168;28;19935;-69
2022/11/03 11:53:07;;;;;;;;;;;;;;;;;;10587358;28;19972;-70
2022/11/03 11:58:10;;;;;;;;;;;;;;;;;;10585760;28;20287;-70
2022/11/03 12:03:12;;;;;;;;;;;;;;;;;;10587513;28;19924;-70
2022/11/03 12:08:14;;;;;;;;;;;;;;;;;;10587387;28;19966;-70
2022/11/03 12:13:16;;;;;;;;;;;;;;;;;;10587331;28;19924;-70
2022/11/03 12:18:18;;;;;;;;;;;;;;;;;;10586451;28;19977;-70
2022/11/03 12:23:20;;;;;;;;;;;;;;;;;;10585557;28;19973;-70
2022/11/03 12:28:22;;;;;;;;;;;;;;;;;;10586215;28;19973;-70
2022/11/03 12:33:24;;;;;;;;;;;;;;;;;;10584015;28;19932;-69
2022/11/03 12:38:26;;;;;;;;;;;;;;;;;;10584677;28;19981;-70
2022/11/03 12:43:28;;;;;;;;;;;;;;;;;;10585547;28;19973;-69
2022/11/03 12:48:31;;;;;;;;;;;;;;;;;;10566985;28;20427;-67
2022/11/03 12:53:33;;;;;;;;;;;;;;;;;;10585456;28;19969;-68
2022/11/03 12:58:35;;;;;;;;;;;;;;;;;;10585252;28;20021;-68
2022/11/03 13:03:37;;;;;;;;;;;;;;;;;;10583356;28;20290;-67
2022/11/03 13:08:39;;;;;;;;;;;;;;;;;;10584962;28;19977;-64
2022/11/03 13:13:41;;;;;;;;;;;;;;;;;;10583940;28;20323;-63
2022/11/03 13:18:43;;;;;;;;;;;;;;;;;;10583659;28;19928;-72
2022/11/03 13:23:45;;;;;;;;;;;;;;;;;;10583420;28;19927;-63
2022/11/03 13:28:47;;;;;;;;;;;;;;;;;;10583511;28;20328;-61
2022/11/03 13:33:51;;;;;;;;;;;;;;;;;;10583871;28;19923;-64
2022/11/03 13:38:53;;;;;;;;;;;;;;;;;;10582938;28;20330;-64
2022/11/03 13:43:55;;;;;;;;;;;;;;;;;;10583312;28;20011;-65
2022/11/03 13:48:57;;;;;;;;;;;;;;;;;;10582443;28;19931;-72
2022/11/03 13:54:19;;;;;;;;;;;;;;;;;;10582454;28;19923;-72
2022/11/03 13:59:41;;;;;;;;;;;;;;;;;;10582355;28;20346;-71
2022/11/03 14:04:43;;;;;;;;;;;;;;;;;;10583007;28;19969;-72
2022/11/03 14:09:45;;;;;;;;;;;;;;;;;;10583170;28;19936;-71
2022/11/03 14:14:48;;;;;;;;;;;;;;;;;;10582766;28;19931;-71
2022/11/03 14:19:50;;;;;;;;;;;;;;;;;;10579692;28;20028;-71
2022/11/03 14:24:54;;;;;;;;;;;;;;;;;;10581700;28;19924;-72
2022/11/03 14:29:56;;;;;;;;;;;;;;;;;;10581055;28;19950;-71
2022/11/03 14:34:58;;;;;;;;;;;;;;;;;;10581594;28;19924;-71
2022/11/03 14:40:00;;;;;;;;;;;;;;;;;;10581445;28;19924;-68
2022/11/03 14:45:02;;;;;;;;;;;;;;;;;;10580824;28;20412;-67
2022/11/03 14:50:04;;;;;;;;;;;;;;;;;;10581056;28;19977;-67
2022/11/03 14:55:06;;;;;;;;;;;;;;;;;;10580161;28;19928;-67
2022/11/03 15:00:10;;;;;;;;;;;;;;;;;;10582817;28;19924;-67
2022/11/03 15:05:42;;;;;;;;;;;;;;;;;;10553544;28;19950;-67
2022/11/03 15:10:34;;;;;;;;;;;;;;;;;;10586736;28;20287;-67
2022/11/03 15:15:36;;;;;;;;;;;;;;;;;;10589529;28;19927;-67
2022/11/03 15:20:38;;;;;;;;;;;;;;;;;;10588633;28;19923;-67
2022/11/03 15:25:40;;;;;;;;;;;;;;;;;;10588727;28;19924;-67
2022/11/03 15:30:42;;;;;;;;;;;;;;;;;;10588293;28;20435;-67
2022/11/03 15:35:44;;;;;;;;;;;;;;;;;;10588780;28;19924;-67
2022/11/03 15:40:47;;;;;;;;;;;;;;;;;;10588428;28;19923;-67
2022/11/03 15:45:49;;;;;;;;;;;;;;;;;;10588233;28;19927;-67
2022/11/03 15:50:51;;;;;;;;;;;;;;;;;;10588878;28;19924;-67
2022/11/03 15:55:53;;;;;;;;;;;;;;;;;;10587976;28;19924;-67
2022/11/03 16:00:55;;;;;;;;;;;;;;;;;;10587014;28;20366;-67
2022/11/03 16:05:57;;;;;;;;;;;;;;;;;;10587527;28;20430;-66
2022/11/03 16:10:59;;;;;;;;;;;;;;;;;;10585964;28;19923;-66
2022/11/03 16:16:01;;;;;;;;;;;;;;;;;;10587011;28;19928;-66
2022/11/03 16:21:04;;;;;;;;;;;;;;;;;;10586007;28;19924;-66
2022/11/03 16:26:07;;;;;;;;;;;;;;;;;;10586709;28;19973;-66
2022/11/03 16:31:09;;;;;;;;;;;;;;;;;;10586672;28;19923;-66
2022/11/03 16:36:11;;;;;;;;;;;;;;;;;;10585671;28;20320;-66
2022/11/03 16:41:13;;;;;;;;;;;;;;;;;;10585999;28;19969;-67
2022/11/03 16:46:15;;;;;;;;;;;;;;;;;;10585870;28;19928;-67
2022/11/03 16:51:17;;;;;;;;;;;;;;;;;;10584606;28;19924;-66
2022/11/03 16:56:20;;;;;;;;;;;;;;;;;;10585112;28;19931;-66
2022/11/03 17:01:23;;;;;;;;;;;;;;;;;;10585208;28;19928;-66
2022/11/03 17:06:25;;;;;;;;;;;;;;;;;;10584317;28;20390;-66
2022/11/03 17:11:36;;;;;;;;;;;;;;;;;;10584787;28;19924;-66
2022/11/03 17:16:41;;;;;;;;;;;;;;;;;;10584559;28;19924;-66
2022/11/03 17:21:43;;;;;;;;;;;;;;;;;;10583488;28;19924;-66
2022/11/03 17:26:45;;;;;;;;;;;;;;;;;;10583880;28;19977;-66
2022/11/03 17:31:47;;;;;;;;;;;;;;;;;;10584029;28;19924;-65
2022/11/03 17:36:49;;;;;;;;;;;;;;;;;;10583888;28;19931;-65
2022/11/03 17:41:51;;;;;;;;;;;;;;;;;;10583007;28;20366;-65
2022/11/03 17:46:53;;;;;;;;;;;;;;;;;;10582973;28;20332;-65
2022/11/03 17:51:55;;;;;;;;;;;;;;;;;;10565140;28;19953;-65
2022/11/03 17:56:58;;;;;;;;;;;;;;;;;;10583093;28;19973;-65
2022/11/03 18:02:02;;;;;;;;;;;;;;;;;;10581934;28;20421;-65
2022/11/03 18:07:04;;;;;;;;;;;;;;;;;;10582880;28;19931;-65
2022/11/03 18:17:28;;;;;;;;;;;;;;;;;;10557177;28;19932;-65
2022/11/03 18:22:30;;;;;;;;;;;;;;;;;;10571400;28;19923;-65
2022/11/03 18:27:32;;;;;;;;;;;;;;;;;;10581892;28;19969;-65
2022/11/03 18:32:34;;;;;;;;;;;;;;;;;;10582232;28;19928;-65
2022/11/03 18:37:36;;;;;;;;;;;;;;;;;;10588350;28;19959;-65
2022/11/03 18:42:38;;;;;;;;;;;;;;;;;;10590659;28;20324;-65
2022/11/03 18:47:41;;;;;;;;;;;;;;;;;;10590624;28;19973;-64
2022/11/03 18:52:43;;;;;;;;;;;;;;;;;;10590381;28;19924;-64
2022/11/03 18:57:45;;;;;;;;;;;;;;;;;;10590176;28;19977;-64
2022/11/03 19:02:47;;;;;;;;;;;;;;;;;;10589688;28;19981;-65
2022/11/03 19:07:49;;;;;;;;;;;;;;;;;;10589098;28;19931;-65
2022/11/03 19:12:51;;;;;;;;;;;;;;;;;;10589007;28;19923;-65
2022/11/03 19:17:54;;;;;;;;;;;;;;;;;;10589074;28;20335;-65
2022/11/03 19:22:56;;;;;;;;;;;;;;;;;;10589141;28;19927;-65
2022/11/03 19:27:58;;;;;;;;;;;;;;;;;;10589153;28;19923;-65
2022/11/03 19:33:00;;;;;;;;;;;;;;;;;;10594549;22;19924;-64
2022/11/03 19:38:02;;;;;;;;;;;;;;;;;;10587690;28;20332;-64
2022/11/03 19:43:04;;;;;;;;;;;;;;;;;;10588954;28;19954;-64
2022/11/03 19:48:07;;;;;;;;;;;;;;;;;;10586420;28;19992;-64
2022/11/03 19:53:25;;;;;;;;;;;;;;;;;;10588013;28;19923;-64
2022/11/03 19:58:27;;;;;;;;;;;;;;;;;;10587837;28;19932;-64
2022/11/03 20:03:30;;;;;;;;;;;;;;;;;;10587752;28;19974;-64
2022/11/03 20:08:32;;;;;;;;;;;;;;;;;;10586311;28;20370;-64
2022/11/03 20:13:34;;;;;;;;;;;;;;;;;;10586656;28;20370;-63
2022/11/03 20:18:36;;;;;;;;;;;;;;;;;;10587028;28;19924;-64
2022/11/03 20:23:38;;;;;;;;;;;;;;;;;;10586152;28;19924;-63
2022/11/03 20:28:40;;;;;;;;;;;;;;;;;;10586276;28;20367;-64
2022/11/03 20:33:42;;;;;;;;;;;;;;;;;;10585576;28;19923;-64
2022/11/03 20:38:45;;;;;;;;;;;;;;;;;;10586087;28;19924;-63
2022/11/03 20:43:47;;;;;;;;;;;;;;;;;;10585724;28;19993;-63
2022/11/03 20:48:49;;;;;;;;;;;;;;;;;;10585221;28;20439;-63
2022/11/03 20:53:51;;;;;;;;;;;;;;;;;;10579753;28;19973;-63
2022/11/03 20:58:53;;;;;;;;;;;;;;;;;;10583138;28;19928;-63
2022/11/03 21:03:57;;;;;;;;;;;;;;;;;;10584465;28;19931;-63
2022/11/03 21:09:02;;;;;;;;;;;;;;;;;;10583920;28;19974;-63
2022/11/03 21:14:04;;;;;;;;;;;;;;;;;;10583809;28;19924;-63
2022/11/03 21:24:27;;;;;;;;;;;;;;;;;;10582930;28;20305;-63
2022/11/03 21:29:29;;;;;;;;;;;;;;;;;;10584290;28;19924;-63
2022/11/03 21:34:51;;;;;;;;;;;;;;;;;;10583191;28;19999;-63
2022/11/03 21:39:53;;;;;;;;;;;;;;;;;;10583761;28;19924;-63
2022/11/03 21:44:55;;;;;;;;;;;;;;;;;;10576311;28;19924;-63
2022/11/03 21:49:57;;;;;;;;;;;;;;;;;;10580412;28;19985;-64
2022/11/03 21:55:04;;;;;;;;;;;;;;;;;;10583345;28;19924;-64
2022/11/03 22:00:06;;;;;;;;;;;;;;;;;;10582651;28;19928;-63
2022/11/03 22:05:08;;;;;;;;;;;;;;;;;;10581632;28;19988;-63
2022/11/03 22:10:12;;;;;;;;;;;;;;;;;;10582259;28;19924;-63
2022/11/03 22:36:36;;;;;;;;;;;;;;;;;;10581801;28;19924;-64
2022/11/03 22:47:04;;;;;;;;;;;;;;;;;;10582471;28;19930;-63
2022/11/03 22:52:09;;;;;;;;;;;;;;;;;;10581484;28;19923;-64
2022/11/03 22:57:12;;;;;;;;;;;;;;;;;;10581387;28;19924;-63
2022/11/03 23:02:14;;;;;;;;;;;;;;;;;;10581822;28;19930;-64
2022/11/03 23:07:16;;;;;;;;;;;;;;;;;;10581851;28;19930;-63
2022/11/03 23:12:18;;;;;;;;;;;;;;;;;;10581712;28;19927;-64
2022/11/03 23:21:05;;;;;;;;;;;;;;;;;;10581654;28;19924;-63
2022/11/03 23:22:42;;;;;;;;;;;;;;;;;;10584969;28;20423;-64
2022/11/03 23:27:44;;;;;;;;;;;;;;;;;;10589220;28;19973;-64
2022/11/03 23:32:46;;;;;;;;;;;;;;;;;;10588099;28;20286;-64
2022/11/03 23:37:48;;;;;;;;;;;;;;;;;;10588768;28;19932;-64
2022/11/03 23:42:50;;;;;;;;;;;;;;;;;;10587833;28;20423;-64
2022/11/03 23:53:13;;;;;;;;;;;;;;;;;;10587540;28;20282;-64
2022/11/03 23:58:18;;;;;;;;;;;;;;;;;;10587963;28;19977;-64
